Time;durP1;ratioP1;P1;durP2;ratioP2;P2;SDS_P1;SDS_P2;PMS_P1;PMS_P2;Temp;Humidity;BMP_temperature;BMP_pressure;BME280_temperature;BME280_humidity;BME280_pressure;Samples;Min_cycle;Max_cycle;Signal;HPM_P1;HPM_P2
2021/03/13 00:04:20;;;;;;;1999.90;999.90;;;;;;;6.30;75.72;99688.47;15622601;28;20481;-71
2021/03/13 00:11:52;;;;;;;1999.90;999.90;;;;;;;6.32;76.12;99688.94;15640791;28;20045;-72
2021/03/13 00:19:24;;;;;;;1999.90;999.90;;;;;;;6.29;76.46;99697.91;15653702;28;20045;-70
2021/03/13 00:26:56;;;;;;;1999.90;999.90;;;;;;;6.40;76.19;99701.16;15656231;28;20500;-70
2021/03/13 00:34:28;;;;;;;1999.90;999.90;;;;;;;6.65;75.26;99691.94;15615408;28;20124;-71
2021/03/13 00:42:00;;;;;;;1999.90;999.90;;;;;;;6.72;75.50;99702.53;15648391;28;20041;-70
2021/03/13 00:49:32;;;;;;;1999.90;999.90;;;;;;;6.66;75.75;99702.69;15634524;28;20049;-70
2021/03/13 00:57:05;;;;;;;1999.90;999.90;;;;;;;6.68;75.38;99694.06;15636175;28;20092;-71
2021/03/13 01:04:37;;;;;;;1999.90;999.90;;;;;;;6.70;74.97;99693.72;15638098;28;20045;-71
2021/03/13 01:12:11;;;;;;;1999.90;999.90;;;;;;;6.65;75.51;99691.94;15646718;28;20453;-71
2021/03/13 01:19:44;;;;;;;1999.90;999.90;;;;;;;6.75;75.12;99686.03;15650919;28;20171;-71
2021/03/13 01:27:16;;;;;;;1999.90;999.90;;;;;;;7.08;73.65;99693.69;15602408;28;20133;-71
2021/03/13 01:34:49;;;;;;;1999.90;999.90;;;;;;;6.66;74.90;99682.47;15613981;28;20119;-71
2021/03/13 01:42:22;;;;;;;1999.90;999.90;;;;;;;6.76;74.32;99682.09;15650116;28;20492;-71
2021/03/13 01:49:58;;;;;;;1999.90;999.90;;;;;;;6.84;73.78;99675.72;15600182;28;20107;-71
2021/03/13 01:57:37;;;;;;;1999.90;999.90;;;;;;;6.56;74.24;99666.19;15595069;28;20029;-70
2021/03/13 02:05:16;;;;;;;1999.90;999.90;;;;;;;6.60;74.58;99668.00;15613983;28;20059;-71
2021/03/13 02:12:59;;;;;;;1999.90;999.90;;;;;;;6.49;74.16;99671.47;15631537;28;20041;-72
2021/03/13 02:21:02;;;;;;;1999.90;999.90;;;;;;;6.77;73.32;99667.09;15634792;28;20296;-72
2021/03/13 02:28:40;;;;;;;1999.90;999.90;;;;;;;6.71;74.12;99674.00;15740942;23;20145;-64
2021/03/13 02:36:16;;;;;;;1999.90;999.90;;;;;;;6.58;74.03;99664.75;15740895;28;20044;-63
2021/03/13 02:43:59;;;;;;;1999.90;999.90;;;;;;;6.92;72.45;99663.78;15729922;28;20119;-63
2021/03/13 02:51:36;;;;;;;1999.90;999.90;;;;;;;6.97;71.64;99653.63;15729068;28;20330;-62
2021/03/13 02:59:10;;;;;;;1999.90;999.90;;;;;;;6.83;71.43;99651.91;15728905;28;20075;-62
2021/03/13 03:06:49;;;;;;;1999.90;999.90;;;;;;;6.72;71.66;99660.94;15727351;28;20132;-61
2021/03/13 03:14:22;;;;;;;1999.90;999.90;;;;;;;6.70;71.69;99652.16;15728450;28;20198;-62
2021/03/13 03:21:56;;;;;;;1999.90;999.90;;;;;;;6.85;70.34;99657.94;15728157;28;20041;-64
2021/03/13 03:29:30;;;;;;;1999.90;999.90;;;;;;;6.72;70.96;99652.63;15745453;28;20036;-62
2021/03/13 03:37:06;;;;;;;1999.90;999.90;;;;;;;6.50;70.82;99657.28;15725015;28;20064;-62
2021/03/13 03:44:42;;;;;;;1999.90;999.90;;;;;;;6.51;71.11;99633.16;15726296;28;20059;-61
2021/03/13 03:52:19;;;;;;;1999.90;999.90;;;;;;;6.19;71.19;99643.69;15725725;28;20040;-60
2021/03/13 03:59:52;;;;;;;1999.90;999.90;;;;;;;6.27;70.50;99631.75;15726360;28;20119;-63
2021/03/13 04:07:24;;;;;;;1999.90;999.90;;;;;;;6.21;71.16;99626.72;15728615;28;20041;-62
2021/03/13 04:14:57;;;;;;;1999.90;999.90;;;;;;;6.26;70.64;99630.16;15725828;28;20048;-63
2021/03/13 04:22:30;;;;;;;1999.90;999.90;;;;;;;6.19;70.65;99629.81;15707373;28;20048;-61
2021/03/13 04:30:02;;;;;;;1999.90;999.90;;;;;;;6.20;71.05;99623.13;15740707;28;20102;-63
2021/03/13 04:37:36;;;;;;;1999.90;999.90;;;;;;;6.12;71.27;99615.66;15740707;28;20138;-62
2021/03/13 04:45:10;;;;;;;1999.90;999.90;;;;;;;6.14;71.45;99610.59;15739727;28;20033;-62
2021/03/13 04:52:43;;;;;;;1999.90;999.90;;;;;;;6.17;71.25;99601.66;15722223;28;20098;-62
2021/03/13 05:00:17;;;;;;;1999.90;999.90;;;;;;;6.34;70.64;99589.69;15722499;28;20048;-61
2021/03/13 05:07:49;;;;;;;1999.90;999.90;;;;;;;6.31;70.92;99593.13;15740405;28;20220;-62
2021/03/13 05:15:23;;;;;;;1999.90;999.90;;;;;;;6.28;70.78;99577.97;15704673;28;20068;-63
2021/03/13 05:22:55;;;;;;;1999.90;999.90;;;;;;;6.30;70.21;99578.47;15738011;28;20102;-61
2021/03/13 05:30:27;;;;;;;1999.90;999.90;;;;;;;6.34;70.47;99571.09;15738049;28;20049;-62
2021/03/13 05:38:00;;;;;;;1999.90;999.90;;;;;;;6.70;70.41;99564.25;15721043;28;20470;-62
2021/03/13 05:45:31;;;;;;;1999.90;999.90;;;;;;;6.99;69.93;99565.38;15737730;28;20049;-64
2021/03/13 05:53:04;;;;;;;1999.90;999.90;;;;;;;7.26;69.28;99558.47;15737857;28;20053;-62
2021/03/13 06:00:37;;;;;;;1999.90;999.90;;;;;;;7.34;68.38;99555.63;15747272;28;20362;-63
2021/03/13 06:08:10;;;;;;;1999.90;999.90;;;;;;;7.49;68.12;99543.06;15732852;28;20041;-63
2021/03/13 06:15:44;;;;;;;1999.90;999.90;;;;;;;7.49;67.83;99537.53;15732262;28;20072;-62
2021/03/13 06:23:16;;;;;;;1999.90;999.90;;;;;;;7.73;67.39;99523.75;15749236;28;20076;-62
2021/03/13 06:30:48;;;;;;;1999.90;999.90;;;;;;;7.46;67.76;99530.69;15731029;28;20539;-62
2021/03/13 06:38:23;;;;;;;1999.90;999.90;;;;;;;7.71;66.74;99522.44;15729852;28;20068;-63
2021/03/13 06:46:03;;;;;;;1999.90;999.90;;;;;;;7.86;66.50;99510.69;15728890;28;20102;-63
2021/03/13 06:53:38;;;;;;;1999.90;999.90;;;;;;;7.62;67.14;99516.19;15729162;28;20044;-63
2021/03/13 07:01:10;;;;;;;1999.90;999.90;;;;;;;7.85;67.46;99503.53;15745640;28;20083;-63
2021/03/13 07:08:44;;;;;;;1999.90;999.90;;;;;;;7.74;68.98;99503.16;15744631;28;20036;-62
2021/03/13 07:16:23;;;;;;;1999.90;999.90;;;;;;;7.64;70.67;99494.44;15710177;28;20074;-62
2021/03/13 07:24:00;;;;;;;1999.90;999.90;;;;;;;7.55;71.34;99490.94;15726766;28;20086;-62
2021/03/13 07:31:35;;;;;;;1999.90;999.90;;;;;;;7.51;72.36;99482.50;15726500;28;20294;-62
2021/03/13 07:39:13;;;;;;;1999.90;999.90;;;;;;;7.53;73.51;99466.31;15725590;28;20044;-62
2021/03/13 07:46:46;;;;;;;1999.90;999.90;;;;;;;7.43;74.48;99462.00;15725724;28;20067;-63
2021/03/13 07:54:19;;;;;;;1999.90;999.90;;;;;;;7.59;74.17;99448.28;15742987;28;20041;-63
2021/03/13 08:01:52;;;;;;;1999.90;999.90;;;;;;;7.52;74.68;99436.94;15745927;28;20045;-61
2021/03/13 08:09:25;;;;;;;1999.90;999.90;;;;;;;7.28;77.12;99418.25;15753942;28;20464;-62
2021/03/13 08:17:05;;;;;;;;;;;;;;;7.24;77.64;99409.81;15711515;28;20048;-61
2021/03/13 08:24:43;;;;;;;1999.90;999.90;;;;;;;7.09;78.69;99390.22;15740144;28;19924;-63
2021/03/13 08:32:15;;;;;;;1999.90;999.90;;;;;;;7.31;79.28;99356.53;15722253;28;20044;-62
2021/03/13 08:39:47;;;;;;;1999.90;999.90;;;;;;;7.13;78.84;99347.59;15758617;23;20488;-56
2021/03/13 08:47:19;;;;;;;1999.90;999.90;;;;;;;7.23;79.78;99332.47;15793771;28;20418;-56
2021/03/13 08:54:54;;;;;;;1999.90;999.90;;;;;;;7.25;80.42;99319.06;15781342;28;20074;-58
2021/03/13 09:02:28;;;;;;;1999.90;999.90;;;;;;;7.45;80.02;99301.50;15779263;28;20492;-58
2021/03/13 09:10:00;;;;;;;1999.90;999.90;;;;;;;7.23;81.84;99266.69;15797038;28;20044;-58
2021/03/13 09:17:33;;;;;;;1999.90;999.90;;;;;;;7.19;82.09;99242.75;15796242;28;20423;-61
2021/03/13 09:25:09;;;;;;;1999.90;999.90;;;;;;;7.41;81.28;99225.66;15786368;28;20047;-56
2021/03/13 09:32:43;;;;;;;1999.90;999.90;;;;;;;7.67;81.30;99200.28;15775617;28;20435;-55
2021/03/13 09:40:18;;;;;;;1999.90;999.90;;;;;;;7.62;81.06;99170.00;15771883;28;20040;-58
2021/03/13 09:47:55;;;;;;;1999.90;999.90;;;;;;;7.85;80.72;99155.59;15774393;28;20040;-58
2021/03/13 09:55:29;;;;;;;1999.90;999.90;;;;;;;7.86;80.54;99152.44;15792594;28;20261;-56
2021/03/13 10:03:02;;;;;;;1999.90;999.90;;;;;;;8.10;80.44;99132.09;15768436;28;20063;-59
2021/03/13 10:10:35;;;;;;;1999.90;999.90;;;;;;;8.20;79.86;99109.34;15759721;28;20135;-55
2021/03/13 10:18:10;;;;;;;1999.90;999.90;;;;;;;8.48;78.28;99089.88;15837825;28;20152;-56
2021/03/13 10:25:44;;;;;;;1999.90;999.90;;;;;;;8.88;77.30;99080.53;15835158;28;20068;-57
2021/03/13 10:33:16;;;;;;;1999.90;999.90;;;;;;;8.75;77.13;99079.00;15795607;28;20105;-54
2021/03/13 10:40:50;;;;;;;1999.90;999.90;;;;;;;8.57;77.41;99037.69;15770125;28;20051;-56
2021/03/13 10:48:21;;;;;;;1999.90;999.90;;;;;;;8.87;77.34;99015.75;15787031;28;20071;-58
2021/03/13 10:55:54;;;;;;;1999.90;999.90;;;;;;;9.04;76.78;99020.09;15777727;28;20499;-60
2021/03/13 11:03:28;;;;;;;1999.90;999.90;;;;;;;9.29;74.95;98998.38;15765349;28;20138;-58
2021/03/13 11:11:00;;;;;;;1999.90;999.90;;;;;;;9.62;73.97;98999.81;15785733;28;20066;-56
2021/03/13 11:18:31;;;;;;;1999.90;999.90;;;;;;;9.83;72.39;98995.47;15776809;28;20048;-59
2021/03/13 11:26:03;;;;;;;1999.90;999.90;;;;;;;10.04;71.28;98974.72;15772129;28;20139;-56
2021/03/13 11:33:35;;;;;;;1999.90;999.90;;;;;;;10.81;69.29;98952.06;15774900;28;20472;-53
2021/03/13 11:41:09;;;;;;;1999.90;999.90;;;;;;;10.86;67.73;98926.66;15779369;28;20496;-54
2021/03/13 11:48:41;;;;;;;1999.90;999.90;;;;;;;11.22;67.04;98936.25;15792717;28;20411;-57
2021/03/13 11:56:14;;;;;;;1999.90;999.90;;;;;;;11.20;64.79;98907.94;15778290;28;20044;-52
2021/03/13 12:03:45;;;;;;;1999.90;999.90;;;;;;;11.39;64.52;98889.41;15799908;28;20401;-53
2021/03/13 12:11:18;;;;;;;1999.90;999.90;;;;;;;11.58;63.35;98875.25;15779536;28;20044;-56
2021/03/13 12:18:50;;;;;;;1999.90;999.90;;;;;;;11.95;61.24;98871.59;15798970;28;20036;-57
2021/03/13 12:26:23;;;;;;;1999.90;999.90;;;;;;;12.18;60.67;98843.41;15802281;28;20040;-55
2021/03/13 12:33:54;;;;;;;1999.90;999.90;;;;;;;12.13;59.03;98828.59;15779065;28;20127;-58
2021/03/13 12:41:26;;;;;;;1999.90;999.90;;;;;;;12.64;58.70;98818.50;15797050;28;20139;-55
2021/03/13 12:48:58;;;;;;;1999.90;999.90;;;;;;;12.30;58.44;98810.34;15775811;28;20040;-52
2021/03/13 12:56:30;;;;;;;1999.90;999.90;;;;;;;12.10;57.98;98783.88;15801322;28;20058;-57
2021/03/13 13:04:03;;;;;;;1999.90;999.90;;;;;;;11.88;59.95;98802.50;15796103;28;20131;-56
2021/03/13 13:11:35;;;;;;;1999.90;999.90;;;;;;;10.27;70.01;98861.25;15796306;28;20105;-55
2021/03/13 13:19:06;;;;;;;1999.90;999.90;;;;;;;8.90;71.08;98877.91;15776118;28;20046;-56
2021/03/13 13:26:38;;;;;;;1999.90;999.90;;;;;;;8.79;71.46;98868.56;15774621;28;20040;-54
2021/03/13 13:34:12;;;;;;;1999.90;999.90;;;;;;;9.01;72.31;98892.03;15793102;28;20127;-57
2021/03/13 13:41:44;;;;;;;1999.90;999.90;;;;;;;8.40;71.37;98901.84;15794248;28;20143;-56
2021/03/13 13:49:16;;;;;;;1999.90;999.90;;;;;;;8.32;71.22;98897.28;15814062;28;20614;-53
2021/03/13 13:56:49;;;;;;;1999.90;999.90;;;;;;;8.71;71.98;98875.13;15834000;28;20037;-58
2021/03/13 14:04:20;;;;;;;1999.90;999.90;;;;;;;8.77;69.24;98868.94;15813328;28;20295;-55
2021/03/13 14:11:53;;;;;;;1999.90;999.90;;;;;;;8.95;69.67;98874.81;15795217;28;20444;-53
2021/03/13 14:19:25;;;;;;;1999.90;999.90;;;;;;;9.05;68.75;98870.66;15798949;28;20054;-54
2021/03/13 14:26:57;;;;;;;1999.90;999.90;;;;;;;8.80;68.47;98847.91;15800324;28;20047;-56
2021/03/13 14:34:29;;;;;;;1999.90;999.90;;;;;;;9.21;68.46;98841.56;15799048;28;20131;-56
2021/03/13 14:42:02;;;;;;;1999.90;999.90;;;;;;;9.06;68.76;98847.22;15799634;28;20074;-56
2021/03/13 14:49:33;;;;;;;1999.90;999.90;;;;;;;9.09;68.58;98874.31;15780675;28;20032;-55
2021/03/13 14:57:07;;;;;;;1999.90;999.90;;;;;;;8.93;69.24;98866.06;15794488;28;20067;-56
2021/03/13 15:04:38;;;;;;;1999.90;999.90;;;;;;;9.19;67.76;98860.63;15796147;28;20044;-58
2021/03/13 15:12:11;;;;;;;1999.90;999.90;;;;;;;9.37;65.74;98857.34;15796071;28;20059;-56
2021/03/13 15:19:43;;;;;;;1999.90;999.90;;;;;;;9.50;64.97;98848.47;15797510;28;20044;-53
2021/03/13 15:27:15;;;;;;;1999.90;999.90;;;;;;;9.38;64.34;98864.53;15798777;28;20124;-58
2021/03/13 15:34:46;;;;;;;1999.90;999.90;;;;;;;9.47;62.98;98865.88;15783247;28;20086;-59
2021/03/13 15:42:19;;;;;;;1999.90;999.90;;;;;;;9.54;63.18;98879.16;15798439;28;20048;-59
2021/03/13 15:49:51;;;;;;;1999.90;999.90;;;;;;;9.26;63.27;98871.06;15798484;28;20044;-57
2021/03/13 15:57:23;;;;;;;1999.90;999.90;;;;;;;9.23;63.54;98883.75;15780330;28;20672;-58
2021/03/13 16:04:55;;;;;;;1999.90;999.90;;;;;;;9.42;62.05;98910.75;15774720;28;20055;-58
2021/03/13 16:12:27;;;;;;;1999.90;999.90;;;;;;;8.78;66.26;98956.75;15775791;28;20118;-55
2021/03/13 16:19:59;;;;;;;1999.90;999.90;;;;;;;8.33;70.22;98951.69;15767551;28;20127;-58
2021/03/13 16:27:31;;;;;;;1999.90;999.90;;;;;;;8.08;71.35;98921.34;15772331;28;20074;-58
2021/03/13 16:35:05;;;;;;;1999.90;999.90;;;;;;;7.94;71.87;98914.63;15769875;28;20081;-58
2021/03/13 16:42:38;;;;;;;1999.90;999.90;;;;;;;8.00;71.44;98915.97;15789226;28;20750;-52
2021/03/13 16:50:12;;;;;;;1999.90;999.90;;;;;;;7.66;72.79;98907.19;15754527;28;20048;-58
2021/03/13 16:57:47;;;;;;;1999.90;999.90;;;;;;;7.62;69.96;98913.81;15757323;28;20054;-57
2021/03/13 17:05:19;;;;;;;1999.90;999.90;;;;;;;7.94;65.35;98940.44;15792050;28;20181;-58
2021/03/13 17:12:52;;;;;;;1999.90;999.90;;;;;;;8.53;63.08;98945.03;15787113;28;20044;-58
2021/03/13 17:20:24;;;;;;;1999.90;999.90;;;;;;;8.63;61.63;98949.22;15757535;28;20044;-59
2021/03/13 17:28:00;;;;;;;1999.90;999.90;;;;;;;8.31;65.05;99027.06;15796776;28;20066;-58
2021/03/13 17:35:32;;;;;;;1999.90;999.90;;;;;;;5.58;76.24;99061.84;15768370;28;20068;-55
2021/03/13 17:43:06;;;;;;;1999.90;999.90;;;;;;;6.00;76.46;98962.09;15796162;28;20050;-55
2021/03/13 17:50:38;;;;;;;;;;;;;;;5.82;77.42;98997.44;15797578;28;20048;-56
2021/03/13 17:58:12;;;;;;;;;;;;;;;5.78;78.14;98979.91;15809106;28;19956;-53
2021/03/13 18:05:48;;;;;;;1999.90;999.90;;;;;;;5.85;78.14;98971.06;15807404;28;19970;-58
2021/03/13 18:13:21;;;;;;;1999.90;999.90;;;;;;;5.97;76.66;98969.13;15791674;28;20052;-56
2021/03/13 18:20:54;;;;;;;1999.90;999.90;;;;;;;6.05;76.96;98953.56;15791516;28;20048;-57
2021/03/13 18:28:30;;;;;;;1999.90;999.90;;;;;;;5.90;77.18;98960.56;15790597;28;20056;-56
2021/03/13 18:36:03;;;;;;;1999.90;999.90;;;;;;;5.90;78.17;98974.41;15773213;28;20048;-54
2021/03/13 18:43:37;;;;;;;1999.90;999.90;;;;;;;6.13;77.50;98972.00;15788181;28;20044;-55
2021/03/13 18:51:08;;;;;;;1999.90;999.90;;;;;;;6.17;76.96;98966.59;15805946;28;20045;-56
2021/03/13 18:58:50;;;;;;;1999.90;999.90;;;;;;;6.20;78.42;98972.25;15787214;28;20120;-60
2021/03/13 19:06:25;;;;;;;1999.90;999.90;;;;;;;6.19;78.12;98967.88;15767827;28;20070;-56
2021/03/13 19:13:57;;;;;;;1999.90;999.90;;;;;;;6.30;76.23;98974.56;15804556;28;20511;-59
2021/03/13 19:21:29;;;;;;;1999.90;999.90;;;;;;;6.53;74.48;98968.53;15818714;28;20072;-59
2021/03/13 19:29:11;;;;;;;1999.90;999.90;;;;;;;6.83;73.23;98980.97;15785805;28;20032;-56
2021/03/13 19:36:42;;;;;;;1999.90;999.90;;;;;;;6.80;73.37;98978.91;15793897;28;20055;-61
2021/03/13 19:44:15;;;;;;;1999.90;999.90;;;;;;;6.92;73.00;98980.81;15789278;28;20142;-55
2021/03/13 19:51:47;;;;;;;1999.90;999.90;;;;;;;6.97;72.55;98975.03;15807336;28;20381;-58
2021/03/13 19:59:23;;;;;;;1999.90;999.90;;;;;;;6.90;72.10;98966.50;15806176;28;20051;-56
2021/03/13 20:06:55;;;;;;;1999.90;999.90;;;;;;;6.99;72.06;98967.19;15803558;28;20493;-57
2021/03/13 20:14:28;;;;;;;1999.90;999.90;;;;;;;7.02;71.28;98968.44;15805601;28;20381;-54
2021/03/13 20:22:00;;;;;;;1999.90;999.90;;;;;;;6.94;71.70;98976.53;15801924;28;20052;-60
2021/03/13 20:29:32;;;;;;;1999.90;999.90;;;;;;;7.00;71.29;98979.88;15780532;28;20055;-54
2021/03/13 20:37:04;;;;;;;1999.90;999.90;;;;;;;6.81;71.01;98971.38;15811068;22;20512;-65
2021/03/13 20:44:37;;;;;;;1999.90;999.90;;;;;;;6.96;69.85;98970.63;15804342;28;20083;-65
2021/03/13 20:52:09;;;;;;;1999.90;999.90;;;;;;;6.90;69.18;98972.06;15804920;28;20075;-66
2021/03/13 20:59:42;;;;;;;1999.90;999.90;;;;;;;6.95;69.08;98974.56;15804715;28;20128;-64
2021/03/13 21:07:13;;;;;;;1999.90;999.90;;;;;;;6.95;68.48;98980.91;15801792;28;20066;-65
2021/03/13 21:14:45;;;;;;;1999.90;999.90;;;;;;;6.84;68.23;98965.13;15784376;28;20044;-64
2021/03/13 21:22:17;;;;;;;1999.90;999.90;;;;;;;6.90;67.26;98964.53;15802183;28;20048;-64
2021/03/13 21:29:50;;;;;;;1999.90;999.90;;;;;;;6.92;66.65;98975.28;15766265;28;20416;-64
2021/03/13 21:37:23;;;;;;;1999.90;999.90;;;;;;;6.80;66.71;98970.56;15801683;28;20032;-67
2021/03/13 21:44:55;;;;;;;1999.90;999.90;;;;;;;6.83;65.65;98986.50;15799722;28;20112;-63
2021/03/13 21:52:27;;;;;;;1999.90;999.90;;;;;;;6.78;65.41;98974.88;15765478;28;20040;-64
2021/03/13 22:00:00;;;;;;;1999.90;999.90;;;;;;;6.88;65.96;98966.88;15765437;28;20054;-65
2021/03/13 22:08:01;;;;;;;1999.90;999.90;;;;;;;6.60;65.94;98972.34;15778991;28;20050;-64
2021/03/13 22:15:34;;;;;;;1999.90;999.90;;;;;;;6.78;65.70;98952.69;15798288;28;20249;-66
2021/03/13 22:23:05;;;;;;;1999.90;999.90;;;;;;;6.81;65.79;98969.41;15799000;28;20051;-64
2021/03/13 22:30:38;;;;;;;1999.90;999.90;;;;;;;6.58;66.00;98971.09;15759848;28;20040;-62
2021/03/13 22:38:09;;;;;;;1999.90;999.90;;;;;;;6.71;66.17;98983.75;15782485;28;20044;-65
2021/03/13 22:45:41;;;;;;;1999.90;999.90;;;;;;;6.63;65.88;98979.94;15810690;28;20478;-65
2021/03/13 22:53:13;;;;;;;1999.90;999.90;;;;;;;6.60;65.68;98971.53;15798006;28;20048;-62
2021/03/13 23:00:48;;;;;;;1999.90;999.90;;;;;;;6.62;65.78;98978.34;15755070;28;20814;-65
2021/03/13 23:08:21;;;;;;;1999.90;999.90;;;;;;;6.49;66.13;98968.44;15753502;28;20501;-64
2021/03/13 23:15:55;;;;;;;1999.90;999.90;;;;;;;6.45;66.45;98964.72;15782875;28;20711;-64
2021/03/13 23:23:27;;;;;;;1999.90;999.90;;;;;;;6.46;66.18;98949.75;15783198;28;20338;-65
2021/03/13 23:31:00;;;;;;;1999.90;999.90;;;;;;;6.37;66.53;98949.06;15785429;28;20040;-65
2021/03/13 23:38:33;;;;;;;1999.90;999.90;;;;;;;6.10;66.61;98945.03;15788529;28;20511;-65
2021/03/13 23:46:07;;;;;;;1999.90;999.90;;;;;;;6.42;65.83;98959.09;15805951;28;20113;-65
2021/03/13 23:53:38;;;;;;;1999.90;999.90;;;;;;;6.36;65.73;98956.56;15788832;28;20130;-65
